Ackermanville, Pennsylvania
Current Conditions -  °F | °C
As of 12:51 AM on Monday 26 Jan 2015 (Local Time) from KABE Reporting Station
Unknown Precip Unknown Precip  
Wind Chill: 17°   Ceiling: 3900
Heat Index: 27°   Visibility: 10mi
Dew Point: 13°   Wind: 10mph
Humidity: 56%   Direction: 40°NE
Pressure: 29.96"   Gusts: NA
Location:  40.84°N, 75.22°W
Report Text: KABE 260551Z 04009KT 10SM UP BKN039 OVC055 M03/M11 A2996 RMK AO2 UPB43SNB32E43 SLP149 P0000 60000 T10281106 10022 21028 58001
Loading
Personal Weather Stations






























Interactive Weather Map New forecast layout! Learn more

10-Day Weather Forecast

Advertisements
Track Severe Weather on mobile